Climatologie pour Saint-Brevin les Pins
Jour • Résumé pour juillet 27, 2017 Système :  Métrique    Anglais   Mixte
« - 1 jour
+ 1 jour »
Jour Semaine Mois Année Personnalisé
  Maximum : Minimum : Moyenne :
Température sous abri : -17.8 °C -9 °C -7.7 °C
Point de rosée : -17.8 °C -10.1 °C -9.2 °C
Humidité : Humidity % 64 % 84 %
Vitesse du vent : 0 km/h 0 km/h 13 km/h
Rafale : 0 km/h - -
Direction :- - WNW
Pression : 0 hPa 34246 hPa -
Précipitations : 7.62 mm    
Historical Graphs
 
 
Tableau de données pour juillet 27, 2017
Heure Tempé Pt rosée Pression Vent Vitesse Rafale Humidité Taux pluie (/hr) Soleil
-17.8 °C -17.8 °C 0 hPa Calm     Humidity % 0 mm SolarRadiationWatts/m^2 W/m2 Conditions
00:00 -7.6 °C -7.8 °C 34293.4 hPa NW 5.1 km/h 28.5 km/h 98 % 7.62 mm 0 W/m2
00:10 -7.6 °C -7.8 °C 34279.9 hPa WNW 7.7 km/h 31.1 km/h 98 % 7.62 mm 0 W/m2
00:15 -7.6 °C -7.8 °C 34279.9 hPa West 25.9 km/h 33.6 km/h 98 % 7.62 mm 0 W/m2
00:20 -7.6 °C -7.8 °C 34279.9 hPa West 7.7 km/h 33.6 km/h 98 % 7.62 mm 0 W/m2
00:25 -7.6 °C -7.8 °C 34279.9 hPa WSW 7.7 km/h 33.6 km/h 98 % 7.62 mm 0 W/m2
00:30 -7.6 °C -7.8 °C 34279.9 hPa West 10.3 km/h 31.1 km/h 98 % 7.62 mm 0 W/m2
00:35 -7.6 °C -7.7 °C 34279.9 hPa NW 7.7 km/h 33.6 km/h 98 % 0 mm 0 W/m2
00:40 -7.6 °C -7.7 °C 34279.9 hPa West 7.7 km/h 33.6 km/h 98 % 0 mm 0 W/m2
00:45 -7.6 °C -7.7 °C 34279.9 hPa WSW 10.3 km/h 33.6 km/h 98 % 0 mm 0 W/m2
00:50 -7.6 °C -7.8 °C 34279.9 hPa West 20.8 km/h 33.6 km/h 98 % 0 mm 0 W/m2
00:55 -7.6 °C -7.8 °C 34279.9 hPa WNW 12.9 km/h 41.4 km/h 98 % 7.62 mm 0 W/m2
01:00 -7.8 °C -8.1 °C 34293.4 hPa West 10.3 km/h 41.4 km/h 97 % 7.62 mm 0 W/m2
01:05 -7.9 °C -8.2 °C 34279.9 hPa WNW 15.6 km/h 31.1 km/h 97 % 7.62 mm 0 W/m2
01:10 -8 °C -8.2 °C 34279.9 hPa WNW 5.1 km/h 23.3 km/h 98 % 7.62 mm 0 W/m2
01:15 -8 °C -8.2 °C 34279.9 hPa WNW 7.7 km/h 18.2 km/h 98 % 7.62 mm 0 W/m2
01:20 -8 °C -8.2 °C 34279.9 hPa WNW 7.7 km/h 20.8 km/h 98 % 7.62 mm 0 W/m2
01:25 -8.1 °C -8.2 °C 34279.9 hPa NNW 20.8 km/h 31.1 km/h 98 % 7.62 mm 0 W/m2
01:30 -8.1 °C -8.3 °C 34279.9 hPa WNW 7.7 km/h 31.1 km/h 98 % 7.62 mm 0 W/m2
01:35 -8.2 °C -8.4 °C 34269.7 hPa NW 5.1 km/h 23.3 km/h 97 % 7.62 mm 0 W/m2
01:40 -8.2 °C -8.4 °C 34269.7 hPa WNW 7.7 km/h 23.3 km/h 98 % 7.62 mm 0 W/m2
01:45 -8.2 °C -8.4 °C 34269.7 hPa WNW 15.6 km/h 20.8 km/h 98 % 7.62 mm 0 W/m2
01:50 -8.2 °C -8.4 °C 34269.7 hPa WNW 2.6 km/h 20.8 km/h 98 % 7.62 mm 0 W/m2
01:55 -8.2 °C -8.4 °C 34269.7 hPa Calm   15.6 km/h 98 % 0 mm 0 W/m2
02:00 -8.2 °C -8.4 °C 34269.7 hPa West 7.7 km/h 12.9 km/h 98 % 0 mm 0 W/m2
02:05 -8.2 °C -8.3 °C 34269.7 hPa West 2.6 km/h 15.6 km/h 98 % 0 mm 0 W/m2
02:10 -8.2 °C -8.3 °C 34269.7 hPa Calm   15.6 km/h 98 % 0 mm 0 W/m2
02:15 -8.2 °C -8.3 °C 34269.7 hPa Calm   10.3 km/h 98 % 0 mm 0 W/m2
02:20 -8.2 °C -8.4 °C 34269.7 hPa Calm   10.3 km/h 98 % 0 mm 0 W/m2
02:25 -8.2 °C -8.4 °C 34269.7 hPa Calm   15.6 km/h 98 % 0 mm 0 W/m2
02:30 -8.3 °C -8.4 °C 34256.2 hPa WNW 5.1 km/h 15.6 km/h 98 % 0 mm 0 W/m2
02:35 -8.3 °C -8.5 °C 34256.2 hPa WNW 5.1 km/h 12.9 km/h 98 % 0 mm 0 W/m2
02:40 -8.3 °C -8.6 °C 34256.2 hPa WSW 15.6 km/h 18.2 km/h 97 % 0 mm 0 W/m2
02:45 -8.3 °C -8.6 °C 34256.2 hPa WSW 12.9 km/h 18.2 km/h 97 % 0 mm 0 W/m2
02:50 -8.3 °C -8.5 °C 34256.2 hPa West 5.1 km/h 15.6 km/h 98 % 0 mm 0 W/m2
02:55 -8.3 °C -8.6 °C 34256.2 hPa WNW 7.7 km/h 20.8 km/h 97 % 0 mm 0 W/m2
03:00 -8.3 °C -8.6 °C 34256.2 hPa WNW 5.1 km/h 20.8 km/h 97 % 0 mm 0 W/m2
03:05 -8.3 °C -8.6 °C 34256.2 hPa Calm   18.2 km/h 97 % 0 mm 0 W/m2
03:10 -8.4 °C -8.6 °C 34256.2 hPa Calm   15.6 km/h 97 % 0 mm 0 W/m2
03:15 -8.4 °C -8.7 °C 34256.2 hPa NW 7.7 km/h 15.6 km/h 97 % 0 mm 0 W/m2
03:20 -8.4 °C -8.7 °C 34256.2 hPa West 10.3 km/h 15.6 km/h 97 % 0 mm 0 W/m2
03:25 -8.4 °C -8.7 °C 34256.2 hPa West 12.9 km/h 18.2 km/h 97 % 0 mm 0 W/m2
03:30 -8.5 °C -8.8 °C 34269.7 hPa WNW 5.1 km/h 18.2 km/h 97 % 0 mm 0 W/m2
03:35 -8.4 °C -8.6 °C 34269.7 hPa WNW 15.6 km/h 18.2 km/h 98 % 0 mm 0 W/m2
03:40 -8.5 °C -8.8 °C 34269.7 hPa WNW 7.7 km/h 15.6 km/h 97 % 0 mm 0 W/m2
03:45 -8.5 °C -8.7 °C 34269.7 hPa WNW 5.1 km/h 15.6 km/h 98 % 0 mm 0 W/m2
03:50 -8.5 °C -8.8 °C 34269.7 hPa Calm   15.6 km/h 97 % 0 mm 0 W/m2
03:55 -8.5 °C -8.8 °C 34269.7 hPa West 7.7 km/h 15.6 km/h 97 % 0 mm 0 W/m2
04:00 -8.5 °C -8.8 °C 34269.7 hPa WNW 2.6 km/h 12.9 km/h 97 % 0 mm 0 W/m2
04:05 -8.5 °C -8.8 °C 34256.2 hPa WNW 7.7 km/h 12.9 km/h 97 % 0 mm 0 W/m2
04:10 -8.6 °C -8.8 °C 34256.2 hPa West 20.8 km/h 20.8 km/h 97 % 0 mm 0 W/m2
04:15 -8.7 °C -8.9 °C 34256.2 hPa West 5.1 km/h 23.3 km/h 97 % 0 mm 0 W/m2
04:20 -8.7 °C -8.9 °C 34256.2 hPa WNW 5.1 km/h 23.3 km/h 97 % 0 mm 0 W/m2
04:25 -8.7 °C -8.9 °C 34256.2 hPa NW 5.1 km/h 18.2 km/h 97 % 0 mm 0 W/m2
04:30 -8.7 °C -8.9 °C 34256.2 hPa WNW 2.6 km/h 18.2 km/h 97 % 0 mm 0 W/m2
04:35 -8.7 °C -8.9 °C 34256.2 hPa WNW 10.3 km/h 18.2 km/h 97 % 0 mm 0 W/m2
04:40 -8.7 °C -8.9 °C 34246 hPa WNW 12.9 km/h 15.6 km/h 97 % 0 mm 0 W/m2
04:45 -8.7 °C -8.9 °C 34246 hPa Calm   12.9 km/h 97 % 0 mm 0 W/m2
04:50 -8.7 °C -9 °C 34246 hPa Calm   12.9 km/h 97 % 0 mm 0 W/m2
04:55 -8.8 °C -9.1 °C 34246 hPa Calm   5.1 km/h 97 % 0 mm 0 W/m2
05:00 -8.8 °C -9.1 °C 34246 hPa WNW 2.6 km/h 7.7 km/h 97 % 0 mm 0 W/m2
05:05 -8.9 °C -9.2 °C 34246 hPa Calm   7.7 km/h 97 % 0 mm 0 W/m2
05:10 -8.9 °C -9.2 °C 34246 hPa Calm   7.7 km/h 97 % 0 mm 0 W/m2
05:20 -8.8 °C -9.1 °C 34246 hPa WNW 5.1 km/h 12.9 km/h 97 % 0 mm 0 W/m2
05:25 -8.8 °C -9.1 °C 34246 hPa Calm   12.9 km/h 97 % 0 mm 0 W/m2
05:30 -8.8 °C -9 °C 34246 hPa WNW 5.1 km/h 10.3 km/h 98 % 0 mm 0 W/m2
05:35 -8.8 °C -9.1 °C 34246 hPa WNW 5.1 km/h 10.3 km/h 97 % 0 mm 0 W/m2
05:40 -8.8 °C -9.1 °C 34246 hPa Calm   10.3 km/h 97 % 0 mm 0 W/m2
05:45 -8.8 °C -9.1 °C 34246 hPa Calm   10.3 km/h 97 % 0 mm 0 W/m2
05:50 -8.7 °C -8.9 °C 34246 hPa Calm   5.1 km/h 97 % 0 mm 0 W/m2
05:55 -8.7 °C -9 °C 34246 hPa Calm   7.7 km/h 97 % 0 mm 0 W/m2
06:00 -8.8 °C -9.1 °C 34246 hPa WNW 2.6 km/h 10.3 km/h 97 % 0 mm 0 W/m2
06:05 -8.8 °C -9.1 °C 34246 hPa NW 7.7 km/h 10.3 km/h 97 % 0 mm 0 W/m2
06:10 -8.8 °C -9.1 °C 34246 hPa WNW 2.6 km/h 10.3 km/h 97 % 0 mm 0 W/m2
06:15 -8.8 °C -9.1 °C 34246 hPa WNW 2.6 km/h 10.3 km/h 97 % 0 mm 0 W/m2
06:20 -8.8 °C -9.1 °C 34246 hPa West 7.7 km/h 12.9 km/h 97 % 0 mm 0 W/m2
06:25 -8.8 °C -9.1 °C 34246 hPa WNW 2.6 km/h 12.9 km/h 97 % 0 mm 0 W/m2
06:30 -8.9 °C -9.2 °C 34246 hPa West 7.7 km/h 18.2 km/h 97 % 0 mm 0 W/m2
06:35 -9 °C -9.2 °C 34246 hPa West 2.6 km/h 20.8 km/h 97 % 0 mm 0 W/m2
06:40 -9 °C -9.3 °C 34246 hPa West 5.1 km/h 20.8 km/h 97 % 0 mm 0 W/m2
06:45 -9 °C -9.3 °C 34246 hPa West 7.7 km/h 18.2 km/h 97 % 0 mm 0 W/m2
06:50 -9 °C -9.3 °C 34256.2 hPa West 5.1 km/h 18.2 km/h 96 % 0 mm 0 W/m2
06:55 -9 °C -9.3 °C 34256.2 hPa WNW 15.6 km/h 28.5 km/h 96 % 0 mm 0 W/m2
07:00 -8.9 °C -9.3 °C 34256.2 hPa NW 5.1 km/h 28.5 km/h 96 % 0 mm 0 W/m2
07:05 -8.9 °C -9.3 °C 34256.2 hPa WNW 5.1 km/h 23.3 km/h 96 % 0 mm 5 W/m2
07:10 -8.9 °C -9.4 °C 34246 hPa West 2.6 km/h 23.3 km/h 95 % 0 mm 11 W/m2
07:15 -8.9 °C -9.4 °C 34246 hPa West 23.3 km/h 23.3 km/h 95 % 0 mm 11 W/m2
07:20 -8.9 °C -9.3 °C 34246 hPa West 12.9 km/h 23.3 km/h 95 % 0 mm 12 W/m2
07:25 -8.9 °C -9.3 °C 34246 hPa WNW 7.7 km/h 23.3 km/h 95 % 0 mm 21 W/m2
07:30 -8.9 °C -9.3 °C 34246 hPa West 7.7 km/h 20.8 km/h 95 % 0 mm 32 W/m2
07:35 -8.9 °C -9.3 °C 34246 hPa WNW 10.3 km/h 18.2 km/h 95 % 0 mm 32 W/m2
07:40 -8.9 °C -9.4 °C 34246 hPa WNW 10.3 km/h 20.8 km/h 94 % 0 mm 23 W/m2
07:45 -8.8 °C -9.4 °C 34246 hPa West 10.3 km/h 20.8 km/h 94 % 0 mm 16 W/m2
07:50 -8.8 °C -9.3 °C 34246 hPa WNW 10.3 km/h 20.8 km/h 94 % 0 mm 19 W/m2
07:55 -8.8 °C -9.3 °C 34256.2 hPa WNW 7.7 km/h 23.3 km/h 94 % 0 mm 25 W/m2
08:00 -8.7 °C -9.2 °C 34256.2 hPa West 15.6 km/h 23.3 km/h 94 % 0 mm 32 W/m2
08:05 -8.7 °C -9.2 °C 34256.2 hPa WNW 15.6 km/h 23.3 km/h 94 % 0 mm 33 W/m2
08:10 -8.7 °C -9.2 °C 34256.2 hPa WNW 10.3 km/h 23.3 km/h 94 % 0 mm 35 W/m2
08:15 -8.7 °C -9.2 °C 34269.7 hPa West 7.7 km/h 20.8 km/h 94 % 0 mm 49 W/m2
08:20 -8.6 °C -9.2 °C 34269.7 hPa Calm   20.8 km/h 94 % 0 mm 65 W/m2
08:25 -8.6 °C -9.1 °C 34269.7 hPa West 7.7 km/h 23.3 km/h 94 % 0 mm 56 W/m2
08:30 -8.5 °C -9.1 °C 34269.7 hPa WNW 12.9 km/h 23.3 km/h 94 % 0 mm 44 W/m2
08:35 -8.5 °C -9 °C 34269.7 hPa West 7.7 km/h 33.6 km/h 94 % 0 mm 95 W/m2
08:40 -8.4 °C -9.1 °C 34269.7 hPa West 10.3 km/h 33.6 km/h 93 % 0 mm 65 W/m2
08:45 -8.4 °C -9.1 °C 34269.7 hPa WNW 12.9 km/h 25.9 km/h 93 % 0 mm 104 W/m2
08:50 -8.3 °C -8.9 °C 34269.7 hPa NW 7.7 km/h 28.5 km/h 93 % 0 mm 162 W/m2
08:55 -8.2 °C -8.9 °C 34279.9 hPa WNW 7.7 km/h 28.5 km/h 93 % 0 mm 144 W/m2
09:00 -8.3 °C -9 °C 34279.9 hPa NW 2.6 km/h 20.8 km/h 92 % 0 mm 139 W/m2
09:05 -8.2 °C -8.8 °C 34279.9 hPa WNW 2.6 km/h 15.6 km/h 93 % 0 mm 137 W/m2
09:10 -8.2 °C -8.9 °C 34269.7 hPa Calm   15.6 km/h 92 % 0 mm 165 W/m2
09:15 -8.2 °C -9 °C 34269.7 hPa West 10.3 km/h 12.9 km/h 91 % 0 mm 181 W/m2
09:20 -8.1 °C -9.1 °C 34279.9 hPa Calm   12.9 km/h 90 % 0 mm 160 W/m2
09:25 -8.2 °C -9.2 °C 34279.9 hPa WSW 7.7 km/h 18.2 km/h 89 % 0 mm 149 W/m2
09:30 -8.2 °C -9.1 °C 34269.7 hPa WSW 7.7 km/h 18.2 km/h 90 % 0 mm 213 W/m2
09:35 -8.1 °C -9.2 °C 34269.7 hPa WNW 2.6 km/h 15.6 km/h 88 % 0 mm 139 W/m2
09:40 -8.1 °C -9.2 °C 34269.7 hPa West 10.3 km/h 18.2 km/h 88 % 0 mm 123 W/m2
09:45 -8.1 °C -9.2 °C 34269.7 hPa West 10.3 km/h 23.3 km/h 88 % 0 mm 135 W/m2
09:50 -8.1 °C -9.3 °C 34269.7 hPa West 5.1 km/h 23.3 km/h 87 % 0 mm 165 W/m2
09:55 -8.1 °C -9.3 °C 34269.7 hPa WNW 12.9 km/h 28.5 km/h 87 % 0 mm 123 W/m2
10:00 -8.1 °C -9.3 °C 34279.9 hPa WNW 20.8 km/h 31.1 km/h 87 % 0 mm 200 W/m2
10:05 -8.1 °C -9.3 °C 34279.9 hPa WNW 7.7 km/h 31.1 km/h 87 % 0 mm 216 W/m2
10:10 -8 °C -9.2 °C 34269.7 hPa WNW 7.7 km/h 28.5 km/h 87 % 0 mm 221 W/m2
10:15 -7.9 °C -9.3 °C 34269.7 hPa NW 10.3 km/h 28.5 km/h 86 % 0 mm 234 W/m2
10:20 -7.9 °C -9.2 °C 34279.9 hPa West 18.2 km/h 31.1 km/h 86 % 0 mm 295 W/m2
10:25 -7.7 °C -9.2 °C 34279.9 hPa WNW 10.3 km/h 33.6 km/h 85 % 0 mm 478 W/m2
10:30 -7.4 °C -9.1 °C 34279.9 hPa WNW 18.2 km/h 33.6 km/h 83 % 0 mm 504 W/m2
10:35 -7.5 °C -9.3 °C 34279.9 hPa WNW 7.7 km/h 31.1 km/h 81 % 0 mm 431 W/m2
10:40 -7.4 °C -9.2 °C 34279.9 hPa West 5.1 km/h 36.2 km/h 82 % 0 mm 504 W/m2
10:45 -7.2 °C -9.1 °C 34279.9 hPa WNW 12.9 km/h 36.2 km/h 81 % 0 mm 533 W/m2
10:50 -7.3 °C -9.5 °C 34279.9 hPa NW 10.3 km/h 33.6 km/h 78 % 0 mm 536 W/m2
10:55 -7.2 °C -9.4 °C 34279.9 hPa WNW 12.9 km/h 36.2 km/h 78 % 0 mm 733 W/m2
11:00 -7.1 °C -9.3 °C 34279.9 hPa WNW 20.8 km/h 36.2 km/h 78 % 0 mm 642 W/m2
11:05 -6.9 °C -9.2 °C 34279.9 hPa West 23.3 km/h 33.6 km/h 77 % 0 mm 803 W/m2
11:10 -7 °C -9.3 °C 34279.9 hPa WNW 25.9 km/h 31.1 km/h 77 % 0 mm 446 W/m2
11:15 -7.2 °C -9.5 °C 34279.9 hPa West 23.3 km/h 33.6 km/h 77 % 0 mm 432 W/m2
11:20 -7.3 °C -9.5 °C 34279.9 hPa NW 12.9 km/h 33.6 km/h 78 % 0 mm 403 W/m2
11:25 -7.4 °C -9.6 °C 34269.7 hPa WNW 15.6 km/h 31.1 km/h 79 % 0 mm 362 W/m2
11:30 -7.4 °C -9.6 °C 34279.9 hPa West 12.9 km/h 31.1 km/h 79 % 0 mm 374 W/m2
11:35 -7.4 °C -9.7 °C 34269.7 hPa West 12.9 km/h 31.1 km/h 78 % 0 mm 360 W/m2
11:40 -7.4 °C -9.8 °C 34269.7 hPa WSW 20.8 km/h 28.5 km/h 77 % 0 mm 371 W/m2
11:45 -7.6 °C -9.7 °C 34269.7 hPa West 10.3 km/h 36.2 km/h 78 % 0 mm 378 W/m2
11:50 -7.4 °C -9.6 °C 34269.7 hPa WNW 12.9 km/h 36.2 km/h 78 % 0 mm 434 W/m2
11:55 -7.3 °C -9.5 °C 34269.7 hPa West 10.3 km/h 36.2 km/h 78 % 0 mm 381 W/m2
12:00 -7.3 °C -9.3 °C 34269.7 hPa WSW 12.9 km/h 31.1 km/h 79 % 0 mm 399 W/m2
12:05 -7.1 °C -9.1 °C 34269.7 hPa WNW 10.3 km/h 31.1 km/h 80 % 0 mm 415 W/m2
12:10 -6.8 °C -9.1 °C 34279.9 hPa West 28.5 km/h 31.1 km/h 77 % 0 mm 466 W/m2
12:15 -6.7 °C -9.1 °C 34279.9 hPa NW 7.7 km/h 31.1 km/h 77 % 0 mm 828 W/m2
12:20 -6.6 °C -9.3 °C 34279.9 hPa WNW 15.6 km/h 31.1 km/h 74 % 0 mm 200 W/m2
12:25 -6.7 °C -9.3 °C 34279.9 hPa WSW 38.8 km/h 41.4 km/h 74 % 0 mm 837 W/m2
12:30 -6.6 °C -9.4 °C 34279.9 hPa NW 15.6 km/h 41.4 km/h 73 % 0 mm 842 W/m2
12:35 -6.4 °C -9.4 °C 34279.9 hPa SW 15.6 km/h 38.8 km/h 71 % 0 mm 603 W/m2
12:40 -6.6 °C -9.3 °C 34279.9 hPa West 2.6 km/h 44.1 km/h 74 % 0 mm 691 W/m2
12:45 -6.5 °C -9.4 °C 34279.9 hPa West 25.9 km/h 44.1 km/h 72 % 0 mm 722 W/m2
12:50 -6.6 °C -9.4 °C 34279.9 hPa West 10.3 km/h 38.8 km/h 73 % 0 mm 969 W/m2
12:55 -6.6 °C -9.3 °C 34279.9 hPa WNW 18.2 km/h 38.8 km/h 74 % 0 mm 526 W/m2
13:00 -6.6 °C -9.5 °C 34279.9 hPa WNW 15.6 km/h 49.2 km/h 72 % 0 mm 638 W/m2
13:10 -6.3 °C -9.2 °C 34279.9 hPa West 23.3 km/h 44.1 km/h 72 % 0 mm 675 W/m2
13:15 -6.6 °C -9.3 °C 34279.9 hPa West 15.6 km/h 49.2 km/h 73 % 0 mm 622 W/m2
13:20 -6.5 °C -9.3 °C 34279.9 hPa WNW 10.3 km/h 49.2 km/h 73 % 0 mm 812 W/m2
13:25 -6.1 °C -9 °C 34293.4 hPa WNW 12.9 km/h 38.8 km/h 72 % 0 mm 756 W/m2
13:30 -6.2 °C -9.3 °C 34293.4 hPa West 18.2 km/h 41.4 km/h 70 % 0 mm 974 W/m2
13:35 -6 °C -9.2 °C 34279.9 hPa West 7.7 km/h 44.1 km/h 70 % 0 mm 942 W/m2
13:40 -5.9 °C -9.1 °C 34293.4 hPa SW 15.6 km/h 44.1 km/h 70 % 0 mm 1000 W/m2
13:45 -6.1 °C -9.6 °C 34293.4 hPa NW 31.1 km/h 41.4 km/h 67 % 0 mm 701 W/m2
13:50 -6.3 °C -9.3 °C 34293.4 hPa West 36.2 km/h 41.4 km/h 71 % 0 mm 671 W/m2
13:55 -6.3 °C -9.2 °C 34293.4 hPa West 12.9 km/h 38.8 km/h 72 % 0 mm 803 W/m2
14:00 -6.1 °C -9.1 °C 34279.9 hPa West 31.1 km/h 36.2 km/h 71 % 0 mm 1004 W/m2
14:05 -6.2 °C -9.7 °C 34279.9 hPa SW 20.8 km/h 38.8 km/h 67 % 0 mm 724 W/m2
14:10 -6.1 °C -9.4 °C 34279.9 hPa West 18.2 km/h 38.8 km/h 69 % 0 mm 810 W/m2
14:15 -6.1 °C -9.3 °C 34279.9 hPa West 15.6 km/h 36.2 km/h 69 % 0 mm 693 W/m2
14:20 -6.2 °C -9.5 °C 34279.9 hPa SW 18.2 km/h 38.8 km/h 69 % 0 mm 585 W/m2
14:25 -6.5 °C -9.6 °C 34279.9 hPa WNW 18.2 km/h 46.7 km/h 70 % 0 mm 659 W/m2
14:30 -6.3 °C -9.5 °C 34279.9 hPa West 15.6 km/h 46.7 km/h 70 % 0 mm 712 W/m2
14:35 -5.9 °C -9.1 °C 34279.9 hPa West 12.9 km/h 38.8 km/h 70 % 0 mm 656 W/m2
14:40 -5.8 °C -9.1 °C 34279.9 hPa WNW 18.2 km/h 36.2 km/h 69 % 0 mm 721 W/m2
14:45 -6.2 °C -9.4 °C 34293.4 hPa WSW 15.6 km/h 44.1 km/h 69 % 0 mm 656 W/m2
14:50 -6.2 °C -8.9 °C 34279.9 hPa WNW 31.1 km/h 44.1 km/h 74 % 0 mm 633 W/m2
14:55 -6.2 °C -9.1 °C 34279.9 hPa West 25.9 km/h 38.8 km/h 72 % 0 mm 635 W/m2
15:00 -6.3 °C -9.6 °C 34279.9 hPa WSW 33.6 km/h 38.8 km/h 69 % 0 mm 545 W/m2
15:05 -6.2 °C -9.2 °C 34279.9 hPa West 20.8 km/h 46.7 km/h 71 % 0 mm 759 W/m2
15:10 -6.2 °C -9.3 °C 34279.9 hPa West 25.9 km/h 46.7 km/h 70 % 0 mm 759 W/m2
15:15 -6.1 °C -9.2 °C 34279.9 hPa NNW 23.3 km/h 41.4 km/h 71 % 0 mm 1014 W/m2
15:20 -5.9 °C -9.3 °C 34279.9 hPa North 28.5 km/h 41.4 km/h 68 % 0 mm 742 W/m2
15:25 -5.9 °C -9.1 °C 34279.9 hPa WNW 20.8 km/h 38.8 km/h 70 % 0 mm 649 W/m2
15:30 -6.2 °C -9.2 °C 34279.9 hPa NW 12.9 km/h 54.4 km/h 71 % 0 mm 563 W/m2
15:35 -6.1 °C -9.4 °C 34279.9 hPa WNW 15.6 km/h 54.4 km/h 69 % 0 mm 606 W/m2
15:40 -6.2 °C -9.4 °C 34279.9 hPa West 33.6 km/h 51.8 km/h 69 % 0 mm 656 W/m2
15:45 -6.3 °C -9.3 °C 34279.9 hPa West 23.3 km/h 51.8 km/h 71 % 0 mm 522 W/m2
15:50 -6.2 °C -9.4 °C 34279.9 hPa WNW 7.7 km/h 46.7 km/h 70 % 0 mm 647 W/m2
15:55 -5.9 °C -9.2 °C 34293.4 hPa WNW 20.8 km/h 46.7 km/h 69 % 0 mm 824 W/m2
16:00 -5.8 °C -9.3 °C 34293.4 hPa NW 25.9 km/h 44.1 km/h 68 % 0 mm 795 W/m2
16:05 -6 °C -9.6 °C 34293.4 hPa West 18.2 km/h 46.7 km/h 67 % 0 mm 828 W/m2
16:10 -5.7 °C -9.1 °C 34293.4 hPa WNW 2.6 km/h 46.7 km/h 68 % 0 mm 833 W/m2
16:15 -5.7 °C -9.6 °C 34293.4 hPa West 12.9 km/h 41.4 km/h 64 % 0 mm 884 W/m2
16:20 -5.9 °C -9.6 °C 34293.4 hPa WNW 28.5 km/h 41.4 km/h 66 % 0 mm 861 W/m2
16:25 -5.9 °C -9.5 °C 34293.4 hPa WSW 31.1 km/h 41.4 km/h 67 % 0 mm 679 W/m2
16:30 -6.1 °C -9.5 °C 34293.4 hPa WNW 15.6 km/h 44.1 km/h 68 % 0 mm 772 W/m2
16:35 -6 °C -9.2 °C 34293.4 hPa WSW 28.5 km/h 44.1 km/h 70 % 0 mm 786 W/m2
16:40 -6 °C -9.2 °C 34293.4 hPa WSW 7.7 km/h 41.4 km/h 70 % 0 mm 773 W/m2
16:45 -6 °C -9.4 °C 34293.4 hPa West 12.9 km/h 49.2 km/h 68 % 0 mm 823 W/m2
16:50 -6.2 °C -9.6 °C 34293.4 hPa West 23.3 km/h 49.2 km/h 68 % 0 mm 589 W/m2
16:55 -6.2 °C -9.5 °C 34293.4 hPa West 23.3 km/h 44.1 km/h 69 % 0 mm 624 W/m2
17:00 -6.1 °C -9.5 °C 34293.4 hPa WNW 20.8 km/h 46.7 km/h 68 % 0 mm 729 W/m2
17:05 -6.3 °C -9.6 °C 34293.4 hPa NNW 18.2 km/h 49.2 km/h 69 % 0 mm 429 W/m2
17:10 -6.4 °C -9.4 °C 34293.4 hPa WNW 15.6 km/h 49.2 km/h 71 % 0 mm 345 W/m2
17:15 -6.4 °C -9.4 °C 34293.4 hPa SW 18.2 km/h 38.8 km/h 71 % 0 mm 345 W/m2
17:20 -6.1 °C -9.1 °C 34293.4 hPa WSW 18.2 km/h 38.8 km/h 71 % 0 mm 677 W/m2
17:25 -5.9 °C -8.9 °C 34293.4 hPa NW 15.6 km/h 41.4 km/h 71 % 0 mm 638 W/m2
17:30 -6.1 °C -9.3 °C 34293.4 hPa West 18.2 km/h 41.4 km/h 69 % 0 mm 605 W/m2
17:35 -6.2 °C -9.3 °C 34293.4 hPa WNW 28.5 km/h 38.8 km/h 70 % 0 mm 599 W/m2
17:40 -6 °C -9.1 °C 34293.4 hPa NW 25.9 km/h 36.2 km/h 71 % 0 mm 633 W/m2
17:45 -6.3 °C -9.5 °C 34293.4 hPa WNW 41.4 km/h 44.1 km/h 70 % 0 mm 580 W/m2
17:50 -6.4 °C -9.3 °C 34293.4 hPa West 15.6 km/h 46.7 km/h 72 % 0 mm 582 W/m2
17:55 -6.4 °C -9.3 °C 34293.4 hPa SSW 15.6 km/h 46.7 km/h 72 % 0 mm 545 W/m2
18:00 -6.5 °C -9.6 °C 34293.4 hPa West 15.6 km/h 44.1 km/h 70 % 0 mm 529 W/m2
18:05 -6.4 °C -9.4 °C 34293.4 hPa West 28.5 km/h 49.2 km/h 71 % 0 mm 517 W/m2
18:15 -6.5 °C -9.2 °C 34293.4 hPa WSW 15.6 km/h 44.1 km/h 74 % 0 mm 494 W/m2
18:20 -6.6 °C -9.1 °C 34303.6 hPa WNW 7.7 km/h 33.6 km/h 75 % 0 mm 480 W/m2
18:25 -6.5 °C -9.2 °C 34303.6 hPa SW 12.9 km/h 38.8 km/h 74 % 0 mm 464 W/m2
18:30 -6.5 °C -9.2 °C 34303.6 hPa WNW 25.9 km/h 44.1 km/h 74 % 0 mm 455 W/m2
18:35 -6.6 °C -9.3 °C 34303.6 hPa WNW 12.9 km/h 44.1 km/h 74 % 0 mm 468 W/m2
18:40 -6.7 °C -9.3 °C 34303.6 hPa West 25.9 km/h 41.4 km/h 74 % 0 mm 434 W/m2
18:45 -6.6 °C -9.2 °C 34303.6 hPa WSW 18.2 km/h 38.8 km/h 75 % 0 mm 418 W/m2
18:50 -6.6 °C -9.3 °C 34303.6 hPa NW 28.5 km/h 44.1 km/h 74 % 0 mm 341 W/m2
18:55 -6.8 °C -9.3 °C 34303.6 hPa West 25.9 km/h 44.1 km/h 75 % 0 mm 401 W/m2
19:00 -6.8 °C -9.2 °C 34303.6 hPa West 20.8 km/h 44.1 km/h 76 % 0 mm 406 W/m2
19:05 -6.7 °C -9.3 °C 34303.6 hPa West 12.9 km/h 38.8 km/h 75 % 0 mm 285 W/m2
19:10 -6.8 °C -9.2 °C 34303.6 hPa WNW 20.8 km/h 49.2 km/h 76 % 0 mm 320 W/m2
19:15 -7 °C -9.4 °C 34303.6 hPa WNW 18.2 km/h 49.2 km/h 76 % 0 mm 380 W/m2
19:20 -6.8 °C -9.1 °C 34303.6 hPa NW 15.6 km/h 38.8 km/h 77 % 0 mm 123 W/m2
19:25 -7 °C -9.4 °C 34303.6 hPa West 10.3 km/h 33.6 km/h 76 % 0 mm 213 W/m2
19:30 -7.1 °C -9.5 °C 34303.6 hPa NNW 18.2 km/h 36.2 km/h 76 % 0 mm 49 W/m2
19:35 -7.3 °C -9.5 °C 34303.6 hPa West 12.9 km/h 44.1 km/h 78 % 0 mm 65 W/m2
19:40 -7.4 °C -9.5 °C 34303.6 hPa WNW 28.5 km/h 44.1 km/h 79 % 0 mm 77 W/m2
19:45 -7.5 °C -9.6 °C 34303.6 hPa West 20.8 km/h 38.8 km/h 79 % 0 mm 172 W/m2
19:50 -7.6 °C -9.6 °C 34303.6 hPa WNW 18.2 km/h 38.8 km/h 79 % 0 mm 216 W/m2
19:55 -7.4 °C -9.4 °C 34303.6 hPa WSW 15.6 km/h 36.2 km/h 79 % 0 mm 225 W/m2
20:00 -7.3 °C -9.4 °C 34303.6 hPa West 12.9 km/h 38.8 km/h 78 % 0 mm 211 W/m2
20:05 -7.3 °C -9.5 °C 34303.6 hPa West 18.2 km/h 38.8 km/h 78 % 0 mm 72 W/m2
20:10 -7.4 °C -9.7 °C 34303.6 hPa West 7.7 km/h 38.8 km/h 77 % 0 mm 137 W/m2
20:15 -7.4 °C -9.7 °C 34303.6 hPa WNW 18.2 km/h 38.8 km/h 77 % 0 mm 123 W/m2
20:20 -7.4 °C -9.6 °C 34303.6 hPa West 18.2 km/h 33.6 km/h 78 % 0 mm 104 W/m2
20:25 -7.5 °C -9.7 °C 34303.6 hPa WNW 10.3 km/h 36.2 km/h 78 % 0 mm 120 W/m2
20:30 -7.6 °C -9.7 °C 34303.6 hPa WSW 15.6 km/h 38.8 km/h 78 % 0 mm 102 W/m2
20:35 -7.6 °C -9.7 °C 34303.6 hPa WNW 7.7 km/h 38.8 km/h 78 % 0 mm 51 W/m2
20:40 -7.6 °C -9.7 °C 34313.7 hPa SW 23.3 km/h 38.8 km/h 79 % 0 mm 44 W/m2
20:45 -7.7 °C -9.7 °C 34313.7 hPa NW 28.5 km/h 38.8 km/h 80 % 0 mm 42 W/m2
20:50 -7.8 °C -9.7 °C 34313.7 hPa NW 28.5 km/h 38.8 km/h 80 % 0 mm 40 W/m2
20:55 -7.8 °C -9.9 °C 34313.7 hPa WNW 10.3 km/h 36.2 km/h 79 % 0 mm 33 W/m2
21:00 -7.8 °C -9.9 °C 34313.7 hPa WSW 18.2 km/h 44.1 km/h 79 % 0 mm 26 W/m2
21:05 -7.9 °C -9.8 °C 34313.7 hPa NW 15.6 km/h 44.1 km/h 80 % 0 mm 26 W/m2
21:10 -7.9 °C -9.8 °C 34327.3 hPa West 15.6 km/h 38.8 km/h 81 % 0 mm 21 W/m2
21:15 -7.9 °C -9.8 °C 34327.3 hPa WNW 5.1 km/h 38.8 km/h 81 % 0 mm 19 W/m2
21:20 -8 °C -9.7 °C 34327.3 hPa NW 15.6 km/h 31.1 km/h 82 % 0 mm 21 W/m2
21:25 -7.9 °C -9.7 °C 34327.3 hPa WNW 10.3 km/h 36.2 km/h 82 % 0 mm 19 W/m2
21:30 -7.9 °C -9.8 °C 34327.3 hPa WNW 15.6 km/h 46.7 km/h 81 % 0 mm 11 W/m2
21:35 -8 °C -9.8 °C 34327.3 hPa West 10.3 km/h 46.7 km/h 81 % 0 mm 9 W/m2
21:40 -8 °C -9.8 °C 34327.3 hPa West 25.9 km/h 36.2 km/h 81 % 0 mm 5 W/m2
21:45 -8.1 °C -9.9 °C 34327.3 hPa West 20.8 km/h 33.6 km/h 81 % 0 mm 0 W/m2
21:55 -8.1 °C -9.8 °C 34327.3 hPa WNW 18.2 km/h 41.4 km/h 82 % 0 mm 0 W/m2
22:00 -8.2 °C -9.9 °C 34327.3 hPa WNW 12.9 km/h 41.4 km/h 82 % 0 mm 0 W/m2
22:05 -8.2 °C -9.9 °C 34327.3 hPa West 12.9 km/h 28.5 km/h 82 % 0 mm 0 W/m2
22:10 -8.2 °C -9.9 °C 34327.3 hPa NW 20.8 km/h 33.6 km/h 82 % 0 mm 0 W/m2
22:15 -8.2 °C -9.9 °C 34327.3 hPa WNW 12.9 km/h 33.6 km/h 82 % 0 mm 0 W/m2
22:20 -8.2 °C -9.9 °C 34327.3 hPa WNW 23.3 km/h 38.8 km/h 82 % 0 mm 0 W/m2
22:25 -8.2 °C -9.9 °C 34337.4 hPa WNW 12.9 km/h 38.8 km/h 82 % 0 mm 0 W/m2
22:30 -8.2 °C -9.9 °C 34337.4 hPa NW 20.8 km/h 36.2 km/h 82 % 0 mm 0 W/m2
22:35 -8.2 °C -9.8 °C 34337.4 hPa West 18.2 km/h 36.2 km/h 83 % 0 mm 0 W/m2
22:40 -8.2 °C -9.8 °C 34337.4 hPa NW 18.2 km/h 33.6 km/h 83 % 0 mm 0 W/m2
22:45 -8.2 °C -9.8 °C 34337.4 hPa WNW 23.3 km/h 28.5 km/h 83 % 0 mm 0 W/m2
22:50 -8.2 °C -9.8 °C 34337.4 hPa WNW 7.7 km/h 31.1 km/h 83 % 0 mm 0 W/m2
22:55 -8.3 °C -9.8 °C 34337.4 hPa WNW 20.8 km/h 31.1 km/h 84 % 0 mm 0 W/m2
23:00 -8.3 °C -9.8 °C 34337.4 hPa WNW 2.6 km/h 31.1 km/h 84 % 0 mm 0 W/m2
23:05 -8.4 °C -9.8 °C 34337.4 hPa WNW 10.3 km/h 25.9 km/h 85 % 0 mm 0 W/m2
23:10 -8.4 °C -9.8 °C 34337.4 hPa West 12.9 km/h 25.9 km/h 85 % 0 mm 0 W/m2
23:15 -8.5 °C -10 °C 34337.4 hPa NW 15.6 km/h 31.1 km/h 84 % 0 mm 0 W/m2
23:20 -8.5 °C -10.1 °C 34337.4 hPa NW 15.6 km/h 31.1 km/h 83 % 0 mm 0 W/m2
23:25 -8.5 °C -10.1 °C 34337.4 hPa West 10.3 km/h 28.5 km/h 83 % 0 mm 0 W/m2
23:30 -8.6 °C -10.1 °C 34337.4 hPa WNW 12.9 km/h 28.5 km/h 84 % 0 mm 0 W/m2
23:35 -8.6 °C -10.1 °C 34347.6 hPa NW 20.8 km/h 31.1 km/h 84 % 0 mm 0 W/m2
23:40 -8.5 °C -10.1 °C 34347.6 hPa WNW 18.2 km/h 33.6 km/h 84 % 0 mm 0 W/m2
23:45 -8.5 °C -10 °C 34347.6 hPa West 7.7 km/h 33.6 km/h 84 % 0 mm 0 W/m2
23:50 -8.5 °C -10.1 °C 34347.6 hPa WNW 7.7 km/h 31.1 km/h 84 % 0 mm 0 W/m2
Avec l'autorisation de Weather Underground - 1.75 mb